Flight Track Log - Related Links

Times and Time Zones

All times are in EDT time to prevent confusion due to time zone crossing. See the KAP2826 flight status page for this flight to view local times or setup timezone preferences in your user account.

Time Position Orientation Groundspeed Altitude Reporting Facility
EDT Latitude Longitude Course Direction KTS MPH feet Rate Location/Type
Thu 02:43:58 PM 42.3667 -70.9833 124° Southeast 113 130 500  Level KA90
Thu 02:44:53 PM 42.3500 -70.9500 124° Southeast 113 130 1,000 470 Climbing KA90
Thu 02:45:53 PM 42.3333 -70.9167 124° Southeast 117 135 1,400 528 Climbing KA90
Thu 02:46:58 PM 42.3167 -70.8667 114° Southeast 128 147 2,100 550 Climbing KA90
Thu 02:47:53 PM 42.2833 -70.8500 160° South 131 151 2,500 446 Climbing KA90
Thu 02:48:59 PM 42.2500 -70.8167 143° Southeast 140 161 3,000 238 Climbing KA90
Thu 02:49:59 PM 42.2167 -70.7833 143° Southeast 159 183 3,000  Level KA90
Thu 02:50:47 PM 42.1833 -70.7667 160° South 169 194 3,000  Level KA90
Thu 02:51:47 PM 42.1333 -70.7333 154° Southeast 170 196 3,000  Level KA90
Thu 02:52:53 PM 42.0833 -70.7000 154° Southeast 169 194 3,000  Level KA90
Thu 02:53:53 PM 42.0500 -70.6667 143° Southeast 167 192 3,000  Level KA90
Thu 02:54:53 PM 42.0167 -70.6333 143° Southeast 170 196 3,000  Level KA90
Thu 02:56:00 PM 41.9914 -70.6141 151° Southeast  Level Estimated
Thu 03:03:00 PM 41.8327 -70.4938 151° Southeast  Level Estimated
Thu 03:04:00 PM 41.8100 -70.4767 151° Southeast  Level Estimated
Thu 03:05:00 PM 41.7873 -70.4596 151° Southeast  Level Estimated
Thu 03:06:00 PM 41.7647 -70.4425 151° Southeast  Level Estimated
Thu 03:07:00 PM 41.7420 -70.4254 151° Southeast  Level Estimated
Thu 03:08:00 PM 41.7193 -70.4083 151° Southeast  Level Estimated
Thu 03:09:00 PM 41.6966 -70.3912 151° Southeast  Level Estimated
Thu 03:10:00 PM 41.6739 -70.3742 151° Southeast  Level Estimated
Thu 03:11:00 PM 41.6512 -70.3571 151° Southeast  Level Estimated
Thu 03:12:00 PM 41.6285 -70.3401 151° Southeast  Level Estimated
Thu 03:13:00 PM 41.6058 -70.3231 151° Southeast  Level Estimated
Thu 03:14:00 PM 41.5831 -70.3060 151° Southeast  Level Estimated
Thu 03:15:00 PM 41.5604 -70.2890 151° Southeast  Level Estimated
Thu 03:16:00 PM 41.5377 -70.2720 151° Southeast  Level Estimated
Thu 03:17:00 PM 41.5150 -70.2551 151° Southeast  Level Estimated
Thu 03:18:00 PM 41.4923 -70.2381 151° Southeast  Level Estimated
Thu 03:19:00 PM 41.4696 -70.2212 151° Southeast  Level Estimated
Thu 03:20:00 PM 41.4469 -70.2042 151° Southeast  Level Estimated
Thu 03:21:00 PM 41.4241 -70.1873 151° Southeast  Level Estimated

Login

Don't have an account? Register now (free) for customized features, flight alerts, and more!